sensor_id;sensor_type;location;lat;lon;timestamp;pressure;altitude;pressure_sealevel;temperature;humidity
69318;BME280;56457;52.190;4.440;2023-06-14T00:00:59;101646.53;;;20.00;100.00
69318;BME280;56457;52.190;4.440;2023-06-14T00:01:59;101656.28;;;20.00;100.00
69318;BME280;56457;52.190;4.440;2023-06-14T00:02:59;101648.06;;;20.07;100.00
69318;BME280;56457;52.190;4.440;2023-06-14T00:04:00;101649.66;;;20.13;100.00
69318;BME280;56457;52.190;4.440;2023-06-14T00:05:01;101645.44;;;20.06;100.00
69318;BME280;56457;52.190;4.440;2023-06-14T00:06:01;101643.69;;;20.05;100.00
69318;BME280;56457;52.190;4.440;2023-06-14T00:07:01;101642.97;;;20.00;100.00
69318;BME280;56457;52.190;4.440;2023-06-14T00:08:02;101650.09;;;19.99;100.00
69318;BME280;56457;52.190;4.440;2023-06-14T00:09:03;101644.78;;;19.99;100.00
69318;BME280;56457;52.190;4.440;2023-06-14T00:10:04;101650.28;;;19.95;100.00
69318;BME280;56457;52.190;4.440;2023-06-14T00:11:05;101647.72;;;19.92;100.00
69318;BME280;56457;52.190;4.440;2023-06-14T00:12:05;101649.22;;;20.00;100.00
69318;BME280;56457;52.190;4.440;2023-06-14T00:13:06;101652.81;;;19.98;100.00
69318;BME280;56457;52.190;4.440;2023-06-14T00:14:07;101645.75;;;19.97;100.00
69318;BME280;56457;52.190;4.440;2023-06-14T00:15:07;101644.03;;;19.96;100.00
69318;BME280;56457;52.190;4.440;2023-06-14T00:16:09;101654.69;;;19.96;100.00
69318;BME280;56457;52.190;4.440;2023-06-14T00:17:09;101646.03;;;19.89;100.00
69318;BME280;56457;52.190;4.440;2023-06-14T00:18:10;101651.25;;;19.92;100.00
69318;BME280;56457;52.190;4.440;2023-06-14T00:19:11;101659.22;;;19.92;100.00
69318;BME280;56457;52.190;4.440;2023-06-14T00:20:12;101654.03;;;19.89;100.00
69318;BME280;56457;52.190;4.440;2023-06-14T00:21:12;101649.41;;;19.94;100.00
69318;BME280;56457;52.190;4.440;2023-06-14T00:22:12;101650.56;;;19.85;100.00
69318;BME280;56457;52.190;4.440;2023-06-14T00:23:13;101652.44;;;19.83;100.00
69318;BME280;56457;52.190;4.440;2023-06-14T00:24:13;101648.75;;;19.87;100.00
69318;BME280;56457;52.190;4.440;2023-06-14T00:25:13;101647.09;;;19.83;100.00
69318;BME280;56457;52.190;4.440;2023-06-14T00:26:13;101651.50;;;19.84;100.00
69318;BME280;56457;52.190;4.440;2023-06-14T00:27:14;101644.31;;;19.86;100.00
69318;BME280;56457;52.190;4.440;2023-06-14T00:28:14;101651.66;;;19.80;100.00
69318;BME280;56457;52.190;4.440;2023-06-14T00:29:14;101651.41;;;19.87;100.00
69318;BME280;56457;52.190;4.440;2023-06-14T00:30:15;101649.66;;;19.86;100.00
69318;BME280;56457;52.190;4.440;2023-06-14T00:31:15;101649.78;;;19.83;100.00
69318;BME280;56457;52.190;4.440;2023-06-14T00:32:15;101649.78;;;19.83;100.00
69318;BME280;56457;52.190;4.440;2023-06-14T00:33:16;101650.50;;;19.87;100.00
69318;BME280;56457;52.190;4.440;2023-06-14T00:34:16;101649.00;;;19.80;100.00
69318;BME280;56457;52.190;4.440;2023-06-14T00:35:16;101653.66;;;19.73;100.00
69318;BME280;56457;52.190;4.440;2023-06-14T00:36:17;101663.44;;;19.73;100.00
69318;BME280;56457;52.190;4.440;2023-06-14T00:37:17;101652.63;;;19.77;100.00
69318;BME280;56457;52.190;4.440;2023-06-14T00:38:17;101648.13;;;19.79;100.00
69318;BME280;56457;52.190;4.440;2023-06-14T00:39:17;101643.91;;;19.72;100.00
69318;BME280;56457;52.190;4.440;2023-06-14T00:40:18;101649.19;;;19.74;100.00
69318;BME280;56457;52.190;4.440;2023-06-14T00:41:18;101652.16;;;19.65;100.00
69318;BME280;56457;52.190;4.440;2023-06-14T00:42:24;101653.84;;;19.67;100.00
69318;BME280;56457;52.190;4.440;2023-06-14T00:43:25;101647.56;;;19.70;100.00
69318;BME280;56457;52.190;4.440;2023-06-14T00:44:25;101655.59;;;19.68;100.00
69318;BME280;56457;52.190;4.440;2023-06-14T00:45:26;101654.63;;;19.71;100.00
69318;BME280;56457;52.190;4.440;2023-06-14T00:46:26;101650.47;;;19.62;100.00
69318;BME280;56457;52.190;4.440;2023-06-14T00:47:26;101651.31;;;19.64;100.00
69318;BME280;56457;52.190;4.440;2023-06-14T00:48:27;101653.03;;;19.65;100.00
69318;BME280;56457;52.190;4.440;2023-06-14T00:49:28;101647.00;;;19.60;100.00
69318;BME280;56457;52.190;4.440;2023-06-14T00:50:29;101645.06;;;19.65;100.00
69318;BME280;56457;52.190;4.440;2023-06-14T00:51:33;101646.53;;;19.74;100.00
69318;BME280;56457;52.190;4.440;2023-06-14T00:52:33;101647.41;;;19.74;100.00
69318;BME280;56457;52.190;4.440;2023-06-14T00:53:34;101650.19;;;19.71;100.00
69318;BME280;56457;52.190;4.440;2023-06-14T00:54:35;101656.38;;;19.72;100.00
69318;BME280;56457;52.190;4.440;2023-06-14T00:55:36;101656.66;;;19.62;100.00
69318;BME280;56457;52.190;4.440;2023-06-14T00:56:36;101652.22;;;19.63;100.00
69318;BME280;56457;52.190;4.440;2023-06-14T00:57:37;101653.91;;;19.66;100.00
69318;BME280;56457;52.190;4.440;2023-06-14T00:58:37;101648.66;;;19.62;100.00
69318;BME280;56457;52.190;4.440;2023-06-14T00:59:39;101647.06;;;19.57;100.00
69318;BME280;56457;52.190;4.440;2023-06-14T01:00:41;101658.34;;;19.65;100.00
69318;BME280;56457;52.190;4.440;2023-06-14T01:01:42;101650.56;;;19.59;100.00
69318;BME280;56457;52.190;4.440;2023-06-14T01:02:42;101646.13;;;19.59;100.00
69318;BME280;56457;52.190;4.440;2023-06-14T01:03:43;101655.78;;;19.62;100.00
69318;BME280;56457;52.190;4.440;2023-06-14T01:04:45;101653.13;;;19.62;100.00
69318;BME280;56457;52.190;4.440;2023-06-14T01:05:49;101646.19;;;19.58;100.00
69318;BME280;56457;52.190;4.440;2023-06-14T01:07:03;101649.59;;;19.61;100.00
69318;BME280;56457;52.190;4.440;2023-06-14T01:08:47;101648.88;;;19.56;100.00
69318;BME280;56457;52.190;4.440;2023-06-14T01:11:03;101640.44;;;19.70;100.00
69318;BME280;56457;52.190;4.440;2023-06-14T01:12:07;101646.13;;;19.59;100.00
69318;BME280;56457;52.190;4.440;2023-06-14T01:13:25;101643.50;;;19.58;100.00
69318;BME280;56457;52.190;4.440;2023-06-14T01:14:27;101644.31;;;19.60;100.00
69318;BME280;56457;52.190;4.440;2023-06-14T01:15:29;101647.97;;;19.56;100.00
69318;BME280;56457;52.190;4.440;2023-06-14T01:16:30;101643.63;;;19.53;100.00
69318;BME280;56457;52.190;4.440;2023-06-14T01:17:32;101647.94;;;19.57;100.00
69318;BME280;56457;52.190;4.440;2023-06-14T01:18:33;101645.31;;;19.56;100.00
69318;BME280;56457;52.190;4.440;2023-06-14T01:19:34;101646.41;;;19.49;100.00
69318;BME280;56457;52.190;4.440;2023-06-14T01:20:35;101642.81;;;19.51;100.00
69318;BME280;56457;52.190;4.440;2023-06-14T01:21:38;101649.88;;;19.52;100.00
69318;BME280;56457;52.190;4.440;2023-06-14T01:22:52;101645.50;;;19.50;100.00
69318;BME280;56457;52.190;4.440;2023-06-14T01:23:55;101642.03;;;19.48;100.00
69318;BME280;56457;52.190;4.440;2023-06-14T01:24:55;101649.94;;;19.51;100.00
69318;BME280;56457;52.190;4.440;2023-06-14T01:25:56;101649.75;;;19.55;100.00
69318;BME280;56457;52.190;4.440;2023-06-14T01:26:57;101646.41;;;19.49;100.00
69318;BME280;56457;52.190;4.440;2023-06-14T01:28:00;101648.16;;;19.50;100.00
69318;BME280;56457;52.190;4.440;2023-06-14T01:29:02;101649.19;;;19.46;100.00
69318;BME280;56457;52.190;4.440;2023-06-14T01:30:02;101652.41;;;19.55;100.00
69318;BME280;56457;52.190;4.440;2023-06-14T01:31:05;101650.81;;;19.50;100.00
69318;BME280;56457;52.190;4.440;2023-06-14T01:32:06;101648.13;;;19.51;100.00
69318;BME280;56457;52.190;4.440;2023-06-14T01:33:06;101658.00;;;19.48;100.00
69318;BME280;56457;52.190;4.440;2023-06-14T01:34:07;101647.25;;;19.51;100.00
69318;BME280;56457;52.190;4.440;2023-06-14T01:35:08;101654.38;;;19.50;100.00
69318;BME280;56457;52.190;4.440;2023-06-14T01:36:09;101656.97;;;19.52;100.00
69318;BME280;56457;52.190;4.440;2023-06-14T01:37:10;101649.94;;;19.49;100.00
69318;BME280;56457;52.190;4.440;2023-06-14T01:38:12;101658.25;;;19.40;100.00
69318;BME280;56457;52.190;4.440;2023-06-14T01:39:13;101654.78;;;19.38;100.00
69318;BME280;56457;52.190;4.440;2023-06-14T01:40:14;101652.91;;;19.40;100.00
69318;BME280;56457;52.190;4.440;2023-06-14T01:41:15;101651.25;;;19.36;100.00
69318;BME280;56457;52.190;4.440;2023-06-14T01:42:16;101655.66;;;19.37;100.00
69318;BME280;56457;52.190;4.440;2023-06-14T01:43:16;101651.19;;;19.39;100.00
69318;BME280;56457;52.190;4.440;2023-06-14T01:44:18;101653.78;;;19.41;100.00
69318;BME280;56457;52.190;4.440;2023-06-14T01:45:19;101654.59;;;19.43;100.00
69318;BME280;56457;52.190;4.440;2023-06-14T01:46:20;101653.78;;;19.41;100.00
69318;BME280;56457;52.190;4.440;2023-06-14T01:47:20;101654.78;;;19.38;100.00
69318;BME280;56457;52.190;4.440;2023-06-14T01:48:21;101650.41;;;19.35;100.00
69318;BME280;56457;52.190;4.440;2023-06-14T01:49:21;101646.66;;;19.41;100.00
69318;BME280;56457;52.190;4.440;2023-06-14T01:50:21;101645.88;;;19.37;100.00
69318;BME280;56457;52.190;4.440;2023-06-14T01:51:22;101649.47;;;19.36;100.00
69318;BME280;56457;52.190;4.440;2023-06-14T01:52:22;101653.19;;;19.31;100.00
69318;BME280;56457;52.190;4.440;2023-06-14T01:53:24;101648.94;;;19.25;100.00
69318;BME280;56457;52.190;4.440;2023-06-14T01:54:24;101650.66;;;19.28;100.00
69318;BME280;56457;52.190;4.440;2023-06-14T01:55:25;101654.34;;;19.22;100.00
69318;BME280;56457;52.190;4.440;2023-06-14T01:56:26;101641.00;;;19.24;100.00
69318;BME280;56457;52.190;4.440;2023-06-14T01:57:27;101644.66;;;19.21;100.00
69318;BME280;56457;52.190;4.440;2023-06-14T01:58:27;101644.66;;;19.21;100.00
69318;BME280;56457;52.190;4.440;2023-06-14T01:59:27;101646.25;;;19.27;100.00
69318;BME280;56457;52.190;4.440;2023-06-14T02:00:28;101635.63;;;19.25;100.00
69318;BME280;56457;52.190;4.440;2023-06-14T02:01:28;101643.72;;;19.22;100.00
69318;BME280;56457;52.190;4.440;2023-06-14T02:02:28;101642.78;;;19.23;100.00
69318;BME280;56457;52.190;4.440;2023-06-14T02:03:28;101643.72;;;19.22;100.00
69318;BME280;56457;52.190;4.440;2023-06-14T02:04:30;101644.66;;;19.21;100.00
69318;BME280;56457;52.190;4.440;2023-06-14T02:05:30;101642.13;;;19.17;100.00
69318;BME280;56457;52.190;4.440;2023-06-14T02:06:30;101644.88;;;19.14;100.00
69318;BME280;56457;52.190;4.440;2023-06-14T02:07:31;101642.34;;;19.09;100.00
69318;BME280;56457;52.190;4.440;2023-06-14T02:08:31;101642.25;;;19.12;100.00
69318;BME280;56457;52.190;4.440;2023-06-14T02:09:31;101642.22;;;19.14;100.00
69318;BME280;56457;52.190;4.440;2023-06-14T02:10:31;101649.22;;;19.16;100.00
69318;BME280;56457;52.190;4.440;2023-06-14T02:11:32;101646.56;;;19.16;100.00
69318;BME280;56457;52.190;4.440;2023-06-14T02:12:32;101644.09;;;19.10;100.00
69318;BME280;56457;52.190;4.440;2023-06-14T02:13:32;101642.44;;;19.06;100.00
69318;BME280;56457;52.190;4.440;2023-06-14T02:14:33;101634.47;;;19.06;100.00
69318;BME280;56457;52.190;4.440;2023-06-14T02:15:33;101636.25;;;19.05;100.00
69318;BME280;56457;52.190;4.440;2023-06-14T02:16:33;101647.91;;;19.01;100.00
69318;BME280;56457;52.190;4.440;2023-06-14T02:17:35;101646.31;;;18.96;100.00
69318;BME280;56457;52.190;4.440;2023-06-14T02:18:36;101642.78;;;18.95;100.00
69318;BME280;56457;52.190;4.440;2023-06-14T02:19:36;101645.34;;;18.98;100.00
69318;BME280;56457;52.190;4.440;2023-06-14T02:20:36;101648.91;;;18.97;100.00
69318;BME280;56457;52.190;4.440;2023-06-14T02:21:37;101644.59;;;18.93;100.00
69318;BME280;56457;52.190;4.440;2023-06-14T02:22:37;101637.66;;;18.89;100.00
69318;BME280;56457;52.190;4.440;2023-06-14T02:23:37;101640.16;;;18.94;100.00
69318;BME280;56457;52.190;4.440;2023-06-14T02:24:38;101644.69;;;18.90;100.00
69318;BME280;56457;52.190;4.440;2023-06-14T02:25:38;101644.66;;;18.92;100.00
69318;BME280;56457;52.190;4.440;2023-06-14T02:26:39;101641.31;;;18.85;100.00
69318;BME280;56457;52.190;4.440;2023-06-14T02:27:41;101639.63;;;18.81;100.00
69318;BME280;56457;52.190;4.440;2023-06-14T02:28:41;101638.00;;;18.77;100.00
69318;BME280;56457;52.190;4.440;2023-06-14T02:29:42;101638.88;;;18.77;100.00
69318;BME280;56457;52.190;4.440;2023-06-14T02:30:42;101637.94;;;18.78;100.00
69318;BME280;56457;52.190;4.440;2023-06-14T02:31:43;101646.66;;;18.83;100.00
69318;BME280;56457;52.190;4.440;2023-06-14T02:32:43;101644.84;;;18.86;100.00
69318;BME280;56457;52.190;4.440;2023-06-14T02:33:43;101643.16;;;18.83;100.00
69318;BME280;56457;52.190;4.440;2023-06-14T02:34:44;101637.81;;;18.83;100.00
69318;BME280;56457;52.190;4.440;2023-06-14T02:35:44;101640.44;;;18.85;100.00
69318;BME280;56457;52.190;4.440;2023-06-14T02:36:44;101649.38;;;18.82;100.00
69318;BME280;56457;52.190;4.440;2023-06-14T02:37:45;101646.66;;;18.83;100.00
69318;BME280;56457;52.190;4.440;2023-06-14T02:38:45;101645.88;;;18.80;100.00
69318;BME280;56457;52.190;4.440;2023-06-14T02:39:45;101644.09;;;18.80;100.00
69318;BME280;56457;52.190;4.440;2023-06-14T02:40:46;101646.22;;;18.68;100.00
69318;BME280;56457;52.190;4.440;2023-06-14T02:41:46;101651.56;;;18.66;100.00
69318;BME280;56457;52.190;4.440;2023-06-14T02:42:47;101652.41;;;18.68;100.00
69318;BME280;56457;52.190;4.440;2023-06-14T02:43:47;101639.75;;;18.78;100.00
69318;BME280;56457;52.190;4.440;2023-06-14T02:44:47;101647.78;;;18.76;100.00
69318;BME280;56457;52.190;4.440;2023-06-14T02:45:51;101654.13;;;18.71;100.00
69318;BME280;56457;52.190;4.440;2023-06-14T02:46:52;101649.81;;;18.65;100.00
69318;BME280;56457;52.190;4.440;2023-06-14T02:47:52;101648.03;;;18.66;100.00
69318;BME280;56457;52.190;4.440;2023-06-14T02:48:53;101660.31;;;18.71;100.00
69318;BME280;56457;52.190;4.440;2023-06-14T02:49:53;101656.88;;;18.66;100.00
69318;BME280;56457;52.190;4.440;2023-06-14T02:50:53;101648.88;;;18.68;100.00
69318;BME280;56457;52.190;4.440;2023-06-14T02:51:54;101654.41;;;18.60;100.00
69318;BME280;56457;52.190;4.440;2023-06-14T02:52:54;101655.31;;;18.59;100.00
69318;BME280;56457;52.190;4.440;2023-06-14T02:53:56;101652.53;;;18.64;100.00
69318;BME280;56457;52.190;4.440;2023-06-14T02:54:57;101657.06;;;18.60;100.00
69318;BME280;56457;52.190;4.440;2023-06-14T02:55:57;101650.00;;;18.59;100.00
69318;BME280;56457;52.190;4.440;2023-06-14T02:56:58;101660.53;;;18.62;100.00
69318;BME280;56457;52.190;4.440;2023-06-14T02:57:58;101662.31;;;18.62;100.00
69318;BME280;56457;52.190;4.440;2023-06-14T02:58:58;101656.94;;;18.63;100.00
69318;BME280;56457;52.190;4.440;2023-06-14T03:00:00;101656.06;;;18.64;100.00
69318;BME280;56457;52.190;4.440;2023-06-14T03:01:00;101663.97;;;18.67;100.00
69318;BME280;56457;52.190;4.440;2023-06-14T03:02:03;101657.97;;;18.59;100.00
69318;BME280;56457;52.190;4.440;2023-06-14T03:03:03;101652.56;;;18.62;100.00
69318;BME280;56457;52.190;4.440;2023-06-14T03:04:04;101654.44;;;18.59;100.00
69318;BME280;56457;52.190;4.440;2023-06-14T03:05:05;101652.81;;;18.53;100.00
69318;BME280;56457;52.190;4.440;2023-06-14T03:06:07;101657.38;;;18.48;100.00
69318;BME280;56457;52.190;4.440;2023-06-14T03:07:09;101666.19;;;18.50;100.00
69318;BME280;56457;52.190;4.440;2023-06-14T03:08:09;101667.28;;;18.43;100.00
69318;BME280;56457;52.190;4.440;2023-06-14T03:09:09;101665.53;;;18.42;100.00
69318;BME280;56457;52.190;4.440;2023-06-14T03:10:09;101661.13;;;18.41;100.00
69318;BME280;56457;52.190;4.440;2023-06-14T03:11:10;101664.63;;;18.43;100.00
69318;BME280;56457;52.190;4.440;2023-06-14T03:12:10;101669.06;;;18.42;100.00
69318;BME280;56457;52.190;4.440;2023-06-14T03:13:11;101667.31;;;18.41;100.00
69318;BME280;56457;52.190;4.440;2023-06-14T03:14:12;101675.25;;;18.43;100.00
69318;BME280;56457;52.190;4.440;2023-06-14T03:15:13;101671.72;;;18.42;100.00
69318;BME280;56457;52.190;4.440;2023-06-14T03:16:14;101665.78;;;18.33;100.00
69318;BME280;56457;52.190;4.440;2023-06-14T03:17:14;101673.72;;;18.34;100.00
69318;BME280;56457;52.190;4.440;2023-06-14T03:18:17;101679.06;;;18.33;100.00
69318;BME280;56457;52.190;4.440;2023-06-14T03:19:17;101672.09;;;18.28;100.00
69318;BME280;56457;52.190;4.440;2023-06-14T03:20:17;101675.81;;;18.21;100.00
69318;BME280;56457;52.190;4.440;2023-06-14T03:21:19;101676.59;;;18.26;100.00
69318;BME280;56457;52.190;4.440;2023-06-14T03:22:20;101682.66;;;18.30;100.00
69318;BME280;56457;52.190;4.440;2023-06-14T03:23:22;101681.72;;;18.33;100.00
69318;BME280;56457;52.190;4.440;2023-06-14T03:24:23;101681.63;;;18.36;100.00
69318;BME280;56457;52.190;4.440;2023-06-14T03:25:24;101682.66;;;18.30;100.00
69318;BME280;56457;52.190;4.440;2023-06-14T03:26:24;101682.78;;;18.25;100.00
69318;BME280;56457;52.190;4.440;2023-06-14T03:27:25;101679.25;;;18.25;100.00
69318;BME280;56457;52.190;4.440;2023-06-14T03:28:25;101681.09;;;18.23;100.00
69318;BME280;56457;52.190;4.440;2023-06-14T03:29:26;101682.88;;;18.22;100.00
69318;BME280;56457;52.190;4.440;2023-06-14T03:30:26;101679.31;;;18.23;100.00
69318;BME280;56457;52.190;4.440;2023-06-14T03:31:28;101683.03;;;18.16;100.00
69318;BME280;56457;52.190;4.440;2023-06-14T03:32:32;101688.25;;;18.19;100.00
69318;BME280;56457;52.190;4.440;2023-06-14T03:33:33;101684.88;;;18.14;100.00
69318;BME280;56457;52.190;4.440;2023-06-14T03:34:33;101684.94;;;18.11;100.00
69318;BME280;56457;52.190;4.440;2023-06-14T03:35:33;101689.31;;;18.14;100.00
69318;BME280;56457;52.190;4.440;2023-06-14T03:36:33;101688.56;;;18.09;100.00
69318;BME280;56457;52.190;4.440;2023-06-14T03:37:34;101693.09;;;18.03;100.00
69318;BME280;56457;52.190;4.440;2023-06-14T03:38:35;101692.13;;;18.08;100.00
69318;BME280;56457;52.190;4.440;2023-06-14T03:39:35;101694.56;;;18.15;100.00
69318;BME280;56457;52.190;4.440;2023-06-14T03:40:36;101693.09;;;18.03;100.00
69318;BME280;56457;52.190;4.440;2023-06-14T03:41:36;101694.94;;;18.01;100.00
69318;BME280;56457;52.190;4.440;2023-06-14T03:42:37;101701.97;;;18.02;100.00
69318;BME280;56457;52.190;4.440;2023-06-14T03:43:37;101696.63;;;18.04;100.00
69318;BME280;56457;52.190;4.440;2023-06-14T03:44:37;101695.66;;;18.07;100.00
69318;BME280;56457;52.190;4.440;2023-06-14T03:45:38;101692.13;;;18.06;100.00
69318;BME280;56457;52.190;4.440;2023-06-14T03:46:38;101693.06;;;18.05;100.00
69318;BME280;56457;52.190;4.440;2023-06-14T03:47:38;101699.34;;;18.01;100.00
69318;BME280;56457;52.190;4.440;2023-06-14T03:48:39;101691.38;;;18.02;100.00
69318;BME280;56457;52.190;4.440;2023-06-14T03:49:41;101694.03;;;18.01;100.00
69318;BME280;56457;52.190;4.440;2023-06-14T03:50:42;101693.22;;;17.99;100.00
69318;BME280;56457;52.190;4.440;2023-06-14T03:51:43;101693.50;;;17.87;100.00
69318;BME280;56457;52.190;4.440;2023-06-14T03:52:43;101700.56;;;17.88;100.00
69318;BME280;56457;52.190;4.440;2023-06-14T03:53:43;101696.88;;;17.93;100.00
69318;BME280;56457;52.190;4.440;2023-06-14T03:54:44;101689.78;;;17.94;100.00
69318;BME280;56457;52.190;4.440;2023-06-14T03:55:44;101691.53;;;17.95;100.00
69318;BME280;56457;52.190;4.440;2023-06-14T03:56:44;101703.94;;;17.94;100.00
69318;BME280;56457;52.190;4.440;2023-06-14T03:57:45;101704.84;;;17.93;100.00
69318;BME280;56457;52.190;4.440;2023-06-14T03:58:46;101702.19;;;17.93;100.00
69318;BME280;56457;52.190;4.440;2023-06-14T03:59:46;101701.44;;;17.88;100.00
69318;BME280;56457;52.190;4.440;2023-06-14T04:00:47;101701.41;;;17.90;100.00
69318;BME280;56457;52.190;4.440;2023-06-14T04:01:47;101698.78;;;17.88;100.00
69318;BME280;56457;52.190;4.440;2023-06-14T04:02:47;101698.19;;;17.75;100.00
69318;BME280;56457;52.190;4.440;2023-06-14T04:03:48;101699.94;;;17.78;100.00
69318;BME280;56457;52.190;4.440;2023-06-14T04:04:49;101706.00;;;17.83;100.00
69318;BME280;56457;52.190;4.440;2023-06-14T04:05:49;101706.94;;;17.81;100.00
69318;BME280;56457;52.190;4.440;2023-06-14T04:06:49;101708.56;;;17.86;100.00
69318;BME280;56457;52.190;4.440;2023-06-14T04:07:50;101703.34;;;17.83;100.00
69318;BME280;56457;52.190;4.440;2023-06-14T04:08:51;101706.88;;;17.82;100.00
69318;BME280;56457;52.190;4.440;2023-06-14T04:09:52;101702.34;;;17.87;100.00
69318;BME280;56457;52.190;4.440;2023-06-14T04:10:52;101712.09;;;17.87;100.00
69318;BME280;56457;52.190;4.440;2023-06-14T04:11:52;101712.19;;;17.84;100.00
69318;BME280;56457;52.190;4.440;2023-06-14T04:12:53;101706.75;;;17.88;100.00
69318;BME280;56457;52.190;4.440;2023-06-14T04:13:53;101707.63;;;17.89;100.00
69318;BME280;56457;52.190;4.440;2023-06-14T04:14:56;101713.81;;;17.88;100.00
69318;BME280;56457;52.190;4.440;2023-06-14T04:15:56;101712.03;;;17.88;100.00
69318;BME280;56457;52.190;4.440;2023-06-14T04:16:57;101711.88;;;17.96;100.00
69318;BME280;56457;52.190;4.440;2023-06-14T04:17:57;101711.88;;;17.96;100.00
69318;BME280;56457;52.190;4.440;2023-06-14T04:18:58;101712.75;;;17.95;100.00
69318;BME280;56457;52.190;4.440;2023-06-14T04:19:59;101713.66;;;17.95;100.00
69318;BME280;56457;52.190;4.440;2023-06-14T04:20:59;101714.53;;;17.96;100.00
69318;BME280;56457;52.190;4.440;2023-06-14T04:22:00;101718.94;;;17.97;100.00
69318;BME280;56457;52.190;4.440;2023-06-14T04:23:14;101717.97;;;17.99;100.00
69318;BME280;56457;52.190;4.440;2023-06-14T04:24:15;101711.78;;;17.99;100.00
69318;BME280;56457;52.190;4.440;2023-06-14T04:25:15;101718.06;;;17.96;100.00
69318;BME280;56457;52.190;4.440;2023-06-14T04:26:16;101714.28;;;18.05;100.00
69318;BME280;56457;52.190;4.440;2023-06-14T04:27:17;101717.56;;;18.16;100.00
69318;BME280;56457;52.190;4.440;2023-06-14T04:28:25;101713.06;;;18.18;100.00
69318;BME280;56457;52.190;4.440;2023-06-14T04:29:27;101721.03;;;18.20;100.00
69318;BME280;56457;52.190;4.440;2023-06-14T04:30:29;101717.34;;;18.24;100.00
69318;BME280;56457;52.190;4.440;2023-06-14T04:31:31;101720.09;;;18.21;100.00
69318;BME280;56457;52.190;4.440;2023-06-14T04:32:37;101719.19;;;18.22;100.00
69318;BME280;56457;52.190;4.440;2023-06-14T04:33:38;101717.47;;;18.19;100.00
69318;BME280;56457;52.190;4.440;2023-06-14T04:34:43;101716.59;;;18.19;100.00
69318;BME280;56457;52.190;4.440;2023-06-14T04:35:44;101713.06;;;18.20;100.00
69318;BME280;56457;52.190;4.440;2023-06-14T04:36:47;101712.44;;;18.09;100.00
69318;BME280;56457;52.190;4.440;2023-06-14T04:37:53;101715.25;;;18.02;100.00
69318;BME280;56457;52.190;4.440;2023-06-14T04:38:53;101713.47;;;18.03;100.00
69318;BME280;56457;52.190;4.440;2023-06-14T04:39:56;101718.47;;;18.15;100.00
69318;BME280;56457;52.190;4.440;2023-06-14T04:40:56;101717.63;;;18.13;100.00
69318;BME280;56457;52.190;4.440;2023-06-14T04:41:57;101711.53;;;18.10;100.00
69318;BME280;56457;52.190;4.440;2023-06-14T04:43:00;101709.75;;;18.10;100.00
69318;BME280;56457;52.190;4.440;2023-06-14T04:44:01;101721.13;;;18.15;100.00
69318;BME280;56457;52.190;4.440;2023-06-14T04:45:01;101722.88;;;18.16;100.00
69318;BME280;56457;52.190;4.440;2023-06-14T04:46:02;101726.53;;;18.11;100.00
69318;BME280;56457;52.190;4.440;2023-06-14T04:47:03;101725.72;;;18.09;100.00
69318;BME280;56457;52.190;4.440;2023-06-14T04:48:04;101726.50;;;18.12;100.00
69318;BME280;56457;52.190;4.440;2023-06-14T04:49:04;101727.34;;;18.14;100.00
69318;BME280;56457;52.190;4.440;2023-06-14T04:50:05;101723.84;;;18.14;100.00
69318;BME280;56457;52.190;4.440;2023-06-14T04:51:05;101715.66;;;18.21;100.00
69318;BME280;56457;52.190;4.440;2023-06-14T04:52:05;101724.56;;;18.20;100.00
69318;BME280;56457;52.190;4.440;2023-06-14T04:53:06;101726.09;;;18.29;100.00
69318;BME280;56457;52.190;4.440;2023-06-14T04:54:07;101721.72;;;18.26;100.00
69318;BME280;56457;52.190;4.440;2023-06-14T04:55:10;101727.72;;;18.35;100.00
69318;BME280;56457;52.190;4.440;2023-06-14T04:56:10;101720.63;;;18.35;100.00
69318;BME280;56457;52.190;4.440;2023-06-14T04:57:11;101724.97;;;18.38;100.00
69318;BME280;56457;52.190;4.440;2023-06-14T04:58:17;101724.94;;;18.39;100.00
69318;BME280;56457;52.190;4.440;2023-06-14T04:59:17;101726.03;;;18.30;100.00
69318;BME280;56457;52.190;4.440;2023-06-14T05:00:17;101731.28;;;18.34;100.00
69318;BME280;56457;52.190;4.440;2023-06-14T05:01:18;101726.84;;;18.34;100.00
69318;BME280;56457;52.190;4.440;2023-06-14T05:02:18;101727.66;;;18.36;100.00
69318;BME280;56457;52.190;4.440;2023-06-14T05:03:18;101724.91;;;18.41;100.00
69318;BME280;56457;52.190;4.440;2023-06-14T05:04:21;101725.72;;;18.43;100.00
69318;BME280;56457;52.190;4.440;2023-06-14T05:05:22;101725.66;;;18.44;100.00
69318;BME280;56457;52.190;4.440;2023-06-14T05:06:22;101720.34;;;18.46;100.00
69318;BME280;56457;52.190;4.440;2023-06-14T05:07:23;101733.81;;;18.38;100.00
69318;BME280;56457;52.190;4.440;2023-06-14T05:08:24;101723.94;;;18.43;100.00
69318;BME280;56457;52.190;4.440;2023-06-14T05:09:24;101730.22;;;18.41;100.00
69318;BME280;56457;52.190;4.440;2023-06-14T05:10:24;101726.72;;;18.39;100.00
69318;BME280;56457;52.190;4.440;2023-06-14T05:11:24;101734.53;;;18.45;100.00
69318;BME280;56457;52.190;4.440;2023-06-14T05:12:26;101726.53;;;18.46;100.00
69318;BME280;56457;52.190;4.440;2023-06-14T05:13:27;101730.03;;;18.47;100.00
69318;BME280;56457;52.190;4.440;2023-06-14T05:14:28;101735.19;;;18.53;100.00
69318;BME280;56457;52.190;4.440;2023-06-14T05:15:28;101731.56;;;18.55;100.00
69318;BME280;56457;52.190;4.440;2023-06-14T05:16:29;101735.00;;;18.61;100.00
69318;BME280;56457;52.190;4.440;2023-06-14T05:17:29;101732.59;;;18.51;100.00